createdAt,value
2017-07-26T00:00:41.400Z,15.7
2017-07-26T00:01:40.470Z,15.6
2017-07-26T00:02:39.669Z,15.6
2017-07-26T00:03:38.752Z,15.6
2017-07-26T00:04:38.345Z,15.6
2017-07-26T00:05:37.414Z,15.6
2017-07-26T00:06:36.492Z,15.6
2017-07-26T00:07:35.574Z,15.6
2017-07-26T00:08:35.280Z,15.6
2017-07-26T00:09:34.484Z,15.6
2017-07-26T00:10:33.449Z,15.6
2017-07-26T00:11:32.527Z,15.6
2017-07-26T00:12:31.996Z,15.7
2017-07-26T00:14:30.350Z,15.7
2017-07-26T00:15:30.086Z,15.7
2017-07-26T00:16:29.042Z,15.6
2017-07-26T00:17:28.246Z,15.6
2017-07-26T00:18:27.439Z,15.6
2017-07-26T00:19:26.516Z,15.6
2017-07-26T00:20:26.228Z,15.6
2017-07-26T00:21:25.437Z,15.6
2017-07-26T00:23:23.548Z,15.6
2017-07-26T00:24:23.253Z,15.5
2017-07-26T00:25:22.460Z,15.5
2017-07-26T00:26:21.554Z,15.5
2017-07-26T00:26:52.071Z,15.5
2017-07-26T00:27:22.355Z,15.3
2017-07-26T00:27:52.749Z,15.3
2017-07-26T00:28:23.252Z,15.3
2017-07-26T00:28:53.648Z,15.3
2017-07-26T00:30:18.525Z,15.3
2017-07-26T00:31:17.737Z,15.2
2017-07-26T00:32:16.945Z,15.2
2017-07-26T00:33:15.929Z,15.1
2017-07-26T00:34:15.524Z,15
2017-07-26T00:35:14.590Z,15.1
2017-07-26T00:36:13.675Z,15.1
2017-07-26T00:37:13.392Z,15.1
2017-07-26T00:38:12.600Z,15.1
2017-07-26T00:39:11.792Z,15.1
2017-07-26T00:39:42.297Z,15.1
2017-07-26T00:40:12.819Z,15.2
2017-07-26T00:41:10.008Z,15.1
2017-07-26T00:42:09.216Z,15.1
2017-07-26T00:43:08.403Z,15.1
2017-07-26T00:44:07.993Z,15.1
2017-07-26T00:45:07.257Z,15.1
2017-07-26T00:46:06.214Z,15.1
2017-07-26T00:47:05.427Z,15.1
2017-07-26T00:48:04.637Z,15.1
2017-07-26T00:49:03.836Z,15.1
2017-07-26T00:50:02.813Z,15.1
2017-07-26T00:51:02.271Z,15.1
2017-07-26T00:52:01.486Z,15.1
2017-07-26T00:53:01.194Z,15.2
2017-07-26T00:54:59.169Z,15.1
2017-07-26T00:55:58.881Z,15.1
2017-07-26T00:56:29.388Z,15.1
2017-07-26T00:56:59.907Z,15.1
2017-07-26T00:57:30.419Z,15.1
2017-07-26T00:58:00.828Z,15.1
2017-07-26T00:58:31.347Z,15.1
2017-07-26T00:59:01.867Z,15.2
2017-07-26T00:59:32.381Z,15.2
2017-07-26T01:00:54.494Z,15.2
2017-07-26T01:01:54.203Z,15.2
2017-07-26T01:02:53.291Z,15.2
2017-07-26T01:04:51.663Z,15.2
2017-07-26T01:05:51.116Z,15.2
2017-07-26T01:06:50.317Z,15.2
2017-07-26T01:07:49.516Z,15.2
2017-07-26T01:08:48.611Z,15.2
2017-07-26T01:09:47.802Z,15.2
2017-07-26T01:10:47.010Z,15.2
2017-07-26T01:11:46.114Z,15.2
2017-07-26T01:12:45.715Z,15.2
2017-07-26T01:13:44.796Z,15.2
2017-07-26T01:14:43.884Z,15.1
2017-07-26T01:15:43.592Z,15.2
2017-07-26T01:16:42.678Z,15.1
2017-07-26T01:17:41.794Z,15.1
2017-07-26T01:19:40.257Z,15.2
2017-07-26T01:20:10.675Z,15.2
2017-07-26T01:20:41.198Z,15.2
2017-07-26T01:21:11.722Z,15.2
2017-07-26T01:22:38.088Z,15.2
2017-07-26T01:23:37.296Z,15.3
2017-07-26T01:24:36.483Z,15.3
2017-07-26T01:26:34.706Z,15.3
2017-07-26T01:27:34.439Z,15.3
2017-07-26T01:28:33.394Z,15.3
2017-07-26T01:29:32.593Z,15.3
2017-07-26T01:30:31.820Z,15.3
2017-07-26T01:31:31.031Z,15.3
2017-07-26T01:32:30.235Z,15.3
2017-07-26T01:33:29.426Z,15.3
2017-07-26T01:34:28.620Z,15.3
2017-07-26T01:35:28.323Z,15.3
2017-07-26T01:36:27.520Z,15.3
2017-07-26T01:37:26.601Z,15.3
2017-07-26T01:38:25.803Z,15.3
2017-07-26T01:38:56.316Z,15.3
2017-07-26T01:40:24.211Z,15.3
2017-07-26T01:41:23.414Z,15.3
2017-07-26T01:42:22.619Z,15.3
2017-07-26T01:43:21.828Z,15.3
2017-07-26T01:44:21.061Z,15.2
2017-07-26T01:45:20.155Z,15.3
2017-07-26T01:46:19.620Z,15.3
2017-07-26T01:47:18.816Z,15.2
2017-07-26T01:48:18.406Z,15.2
2017-07-26T01:48:48.688Z,15.2
2017-07-26T01:49:19.197Z,15.2
2017-07-26T01:49:49.712Z,15.2
2017-07-26T01:51:16.095Z,15.3
2017-07-26T01:52:15.303Z,15.3
2017-07-26T01:53:14.401Z,15.3
2017-07-26T01:54:13.598Z,15.3
2017-07-26T01:55:12.678Z,15.3
2017-07-26T01:56:11.753Z,15.3
2017-07-26T01:57:11.455Z,15.3
2017-07-26T01:58:10.656Z,15.3
2017-07-26T01:59:09.611Z,15.3
2017-07-26T02:00:09.203Z,15.3
2017-07-26T02:01:08.062Z,15.3
2017-07-26T02:02:07.140Z,15.2
2017-07-26T02:03:06.833Z,15.1
2017-07-26T02:04:06.044Z,15.1
2017-07-26T02:05:05.253Z,15.1
2017-07-26T02:06:04.343Z,15.2
2017-07-26T02:08:02.713Z,15.2
2017-07-26T02:09:01.900Z,15.2
2017-07-26T02:10:00.975Z,15.2
2017-07-26T02:11:00.566Z,15.2
2017-07-26T02:11:59.650Z,15.2
2017-07-26T02:12:58.843Z,15.2
2017-07-26T02:13:58.048Z,15.2
2017-07-26T02:14:57.633Z,15.2
2017-07-26T02:15:28.155Z,15.2
2017-07-26T02:15:58.678Z,15.2
2017-07-26T02:16:55.861Z,15.3
2017-07-26T02:17:55.055Z,15.3
2017-07-26T02:18:54.264Z,15.2
2017-07-26T02:19:53.468Z,15.3
2017-07-26T02:20:52.555Z,15.2
2017-07-26T02:21:52.252Z,15.2
2017-07-26T02:22:51.334Z,15.1
2017-07-26T02:23:50.545Z,15.2
2017-07-26T02:24:49.763Z,15.1
2017-07-26T02:25:48.839Z,15.2
2017-07-26T02:26:48.543Z,15.2
2017-07-26T02:27:47.623Z,15.2
2017-07-26T02:28:46.815Z,15.3
2017-07-26T02:29:45.883Z,15.3
2017-07-26T02:30:45.488Z,15.2
2017-07-26T02:31:44.700Z,15.2
2017-07-26T02:32:43.915Z,15.2
2017-07-26T02:33:43.145Z,15.2
2017-07-26T02:34:42.361Z,15.3
2017-07-26T02:35:41.452Z,15.2
2017-07-26T02:37:40.060Z,15.3
2017-07-26T02:38:39.284Z,15.3
2017-07-26T02:39:38.487Z,15.3
2017-07-26T02:40:37.694Z,15.3
2017-07-26T02:41:36.774Z,15.2
2017-07-26T02:42:35.980Z,15.2
2017-07-26T02:43:35.190Z,15.1
2017-07-26T02:44:34.387Z,15.1
2017-07-26T02:45:04.650Z,15.1
2017-07-26T02:45:35.178Z,15.2
2017-07-26T02:46:05.686Z,15.2
2017-07-26T02:46:36.204Z,15.2
2017-07-26T02:47:06.720Z,15.2
2017-07-26T02:48:31.598Z,15.1
2017-07-26T02:49:30.679Z,15.1
2017-07-26T02:50:29.879Z,15.1
2017-07-26T02:51:29.100Z,15.1
2017-07-26T02:52:28.310Z,15.1
2017-07-26T02:53:27.516Z,15.1
2017-07-26T02:54:26.711Z,15.1
2017-07-26T02:55:25.902Z,15.1
2017-07-26T02:56:25.600Z,15.2
2017-07-26T02:57:24.811Z,15.2
2017-07-26T02:58:23.775Z,15.1
2017-07-26T02:59:22.726Z,15.2
2017-07-26T03:00:22.078Z,15.2
2017-07-26T03:01:21.788Z,15.2
2017-07-26T03:02:20.752Z,15.2
2017-07-26T03:04:19.353Z,15.2
2017-07-26T03:05:18.559Z,15.2
2017-07-26T03:06:17.768Z,15.3
2017-07-26T03:08:16.113Z,15.1
2017-07-26T03:09:15.314Z,15.1
2017-07-26T03:10:14.034Z,15.1
2017-07-26T03:11:14.021Z,15.1
2017-07-26T03:12:13.229Z,15.1
2017-07-26T03:13:12.304Z,15.1
2017-07-26T03:14:11.387Z,15.1
2017-07-26T03:16:09.873Z,15.1
2017-07-26T03:17:09.076Z,15.1
2017-07-26T03:18:08.775Z,15.1
2017-07-26T03:19:07.982Z,15.1
2017-07-26T03:20:07.065Z,15
2017-07-26T03:21:06.255Z,15.1
2017-07-26T03:22:05.337Z,15.1
2017-07-26T03:23:04.934Z,15.1
2017-07-26T03:24:04.149Z,15.1
2017-07-26T03:25:03.351Z,15.1
2017-07-26T03:25:33.744Z,15.1
2017-07-26T03:26:04.260Z,15.1
2017-07-26T03:27:01.722Z,15.1
2017-07-26T03:29:00.322Z,15.1
2017-07-26T03:29:59.291Z,15.1
2017-07-26T03:30:58.514Z,15.1
2017-07-26T03:31:57.721Z,15.1
2017-07-26T03:33:56.323Z,15.1
2017-07-26T03:34:55.405Z,15.1
2017-07-26T03:35:54.594Z,15.1
2017-07-26T03:36:24.993Z,15.1
2017-07-26T03:36:55.508Z,15.1
2017-07-26T03:37:26.014Z,15.1
2017-07-26T03:37:56.431Z,15.1
2017-07-26T03:38:26.945Z,15.1
2017-07-26T03:40:51.200Z,15.1
2017-07-26T03:41:50.273Z,15.1
2017-07-26T03:42:49.487Z,15.1
2017-07-26T03:43:48.474Z,15.1
2017-07-26T03:44:47.443Z,15.1
2017-07-26T03:45:47.138Z,15.1
2017-07-26T03:46:46.335Z,15.1
2017-07-26T03:47:45.539Z,15.1
2017-07-26T03:48:44.728Z,15.1
2017-07-26T03:49:43.913Z,15.1
2017-07-26T03:50:43.382Z,15.1
2017-07-26T03:51:42.458Z,15.2
2017-07-26T03:53:41.053Z,15.2
2017-07-26T03:55:39.643Z,15.2
2017-07-26T03:56:38.845Z,15.2
2017-07-26T03:57:38.055Z,15.2
2017-07-26T03:58:37.144Z,15.2
2017-07-26T03:59:36.332Z,15.1
2017-07-26T04:00:35.409Z,15.1
2017-07-26T04:01:34.986Z,15.1
2017-07-26T04:02:33.950Z,15.1
2017-07-26T04:03:33.148Z,15.1
2017-07-26T04:04:32.862Z,15.1
2017-07-26T04:05:32.084Z,15.1
2017-07-26T04:06:31.281Z,15.2
2017-07-26T04:07:30.490Z,15.1
2017-07-26T04:08:29.684Z,15.1
2017-07-26T04:09:28.762Z,15.2
2017-07-26T04:10:27.960Z,15.1
2017-07-26T04:11:27.161Z,15.1
2017-07-26T04:12:26.249Z,15.1
2017-07-26T04:13:25.939Z,15.1
2017-07-26T04:14:25.024Z,15.1
2017-07-26T04:15:24.231Z,15.1
2017-07-26T04:16:23.201Z,15
2017-07-26T04:17:22.783Z,15.1
2017-07-26T04:18:21.868Z,15.1
2017-07-26T04:19:20.835Z,15.1
2017-07-26T04:20:20.305Z,15
2017-07-26T04:21:19.277Z,15
2017-07-26T04:22:18.981Z,15
2017-07-26T04:24:16.945Z,15
2017-07-26T04:25:16.539Z,15
2017-07-26T04:26:15.630Z,15
2017-07-26T04:27:14.597Z,15
2017-07-26T04:28:14.187Z,14.9
2017-07-26T04:29:13.267Z,14.9
2017-07-26T04:30:12.867Z,14.8
2017-07-26T04:31:11.953Z,14.8
2017-07-26T04:32:11.163Z,14.8
2017-07-26T04:32:41.702Z,14.8
2017-07-26T04:33:12.094Z,14.8
2017-07-26T04:33:42.610Z,14.8
2017-07-26T04:34:13.123Z,14.8
2017-07-26T04:34:43.520Z,14.8
2017-07-26T04:36:08.283Z,14.8
2017-07-26T04:39:05.759Z,14.7
2017-07-26T04:41:04.357Z,14.7
2017-07-26T04:42:03.558Z,14.6
2017-07-26T04:43:02.755Z,14.6
2017-07-26T04:44:01.838Z,14.6
2017-07-26T04:46:00.325Z,14.7
2017-07-26T04:47:58.676Z,14.8
2017-07-26T04:48:57.884Z,14.7
2017-07-26T04:49:57.085Z,14.7
2017-07-26T04:50:56.787Z,14.8
2017-07-26T04:51:55.983Z,14.8
2017-07-26T04:52:55.187Z,14.8
2017-07-26T04:53:54.264Z,14.8
2017-07-26T04:54:53.460Z,14.8
2017-07-26T04:57:50.938Z,14.9
2017-07-26T04:58:50.133Z,14.9
2017-07-26T04:59:49.717Z,15
2017-07-26T05:00:48.918Z,15
2017-07-26T05:01:47.893Z,14.9
2017-07-26T05:02:18.409Z,14.9
2017-07-26T05:02:48.793Z,14.9
2017-07-26T05:03:19.296Z,14.9
2017-07-26T05:03:49.577Z,15
2017-07-26T05:04:20.100Z,15
2017-07-26T05:05:44.978Z,15
2017-07-26T05:06:44.070Z,15
2017-07-26T05:07:43.148Z,15
2017-07-26T05:08:42.854Z,15
2017-07-26T05:09:42.063Z,15
2017-07-26T05:11:40.149Z,15
2017-07-26T05:12:39.840Z,15
2017-07-26T05:13:39.045Z,15.1
2017-07-26T05:14:38.256Z,15.1
2017-07-26T05:15:37.457Z,15.1
2017-07-26T05:17:35.431Z,15.1
2017-07-26T05:18:35.022Z,15.1
2017-07-26T05:19:34.229Z,15.2
2017-07-26T05:20:33.432Z,15.2
2017-07-26T05:21:32.628Z,15.2
2017-07-26T05:22:31.836Z,15.2
2017-07-26T05:23:31.031Z,15.2
2017-07-26T05:24:30.227Z,15.2
2017-07-26T05:25:00.632Z,15.2
2017-07-26T05:25:31.024Z,15.3
2017-07-26T05:26:01.305Z,15.3
2017-07-26T05:27:28.176Z,15.3
2017-07-26T05:28:27.379Z,15.3
2017-07-26T05:29:26.240Z,15.3
2017-07-26T05:30:25.825Z,15.2
2017-07-26T05:31:25.026Z,15.2
2017-07-26T05:32:24.225Z,15.3
2017-07-26T05:33:23.194Z,15.3
2017-07-26T05:34:22.669Z,15.3
2017-07-26T05:35:21.640Z,15.3
2017-07-26T05:36:21.342Z,15.3
2017-07-26T05:38:19.809Z,15.4
2017-07-26T05:40:17.892Z,15.5
2017-07-26T05:41:16.975Z,15.6
2017-07-26T05:42:16.557Z,15.6
2017-07-26T05:43:15.647Z,15.6
2017-07-26T05:44:14.840Z,15.7
2017-07-26T05:44:45.349Z,15.7
2017-07-26T05:46:13.247Z,15.7
2017-07-26T05:47:12.710Z,15.7
2017-07-26T05:48:11.802Z,15.7
2017-07-26T05:49:10.994Z,15.7
2017-07-26T05:50:10.196Z,15.7
2017-07-26T05:51:09.903Z,15.7
2017-07-26T05:52:08.987Z,15.8
2017-07-26T05:53:08.214Z,15.8
2017-07-26T05:54:07.417Z,15.8
2017-07-26T05:55:06.521Z,15.8
2017-07-26T05:55:37.037Z,15.8
2017-07-26T05:57:05.314Z,15.8
2017-07-26T05:58:04.396Z,15.8
2017-07-26T05:59:03.601Z,15.8
2017-07-26T06:00:02.802Z,15.8
2017-07-26T06:01:02.029Z,15.8
2017-07-26T06:02:01.220Z,15.8
2017-07-26T06:03:00.434Z,15.8
2017-07-26T06:03:59.535Z,15.8
2017-07-26T06:04:59.119Z,15.8
2017-07-26T06:05:58.208Z,15.8
2017-07-26T06:06:57.288Z,15.8
2017-07-26T06:07:56.485Z,15.8
2017-07-26T06:08:55.698Z,15.8
2017-07-26T06:09:55.192Z,15.8
2017-07-26T06:11:53.667Z,15.8
2017-07-26T06:12:52.880Z,15.8
2017-07-26T06:13:51.959Z,15.7
2017-07-26T06:14:51.039Z,15.8
2017-07-26T06:15:50.742Z,15.8
2017-07-26T06:16:50.038Z,15.8
2017-07-26T06:17:49.248Z,15.8
2017-07-26T06:18:48.325Z,15.8
2017-07-26T06:19:47.418Z,15.8
2017-07-26T06:20:46.626Z,15.9
2017-07-26T06:21:17.134Z,15.9
2017-07-26T06:22:45.421Z,15.9
2017-07-26T06:23:44.623Z,15.9
2017-07-26T06:24:43.823Z,15.9
2017-07-26T06:25:42.910Z,16
2017-07-26T06:26:42.121Z,16
2017-07-26T06:27:41.335Z,16
2017-07-26T06:28:40.290Z,16
2017-07-26T06:29:39.876Z,16
2017-07-26T06:30:38.835Z,16.1
2017-07-26T06:31:38.418Z,16.1
2017-07-26T06:32:37.504Z,16.1
2017-07-26T06:33:08.030Z,16.1
2017-07-26T06:33:38.419Z,16.1
2017-07-26T06:34:35.990Z,16.1
2017-07-26T06:35:35.068Z,16.1
2017-07-26T06:36:34.803Z,16.1
2017-07-26T06:37:33.998Z,16.1
2017-07-26T06:40:31.477Z,16.1
2017-07-26T06:41:30.937Z,16
2017-07-26T06:42:30.140Z,16
2017-07-26T06:43:29.346Z,16
2017-07-26T06:44:28.551Z,16
2017-07-26T06:45:28.141Z,16
2017-07-26T06:46:27.212Z,16
2017-07-26T06:47:26.328Z,16
2017-07-26T06:48:25.438Z,15.9
2017-07-26T06:49:25.017Z,15.9
2017-07-26T06:50:24.218Z,15.8
2017-07-26T06:50:54.740Z,15.8
2017-07-26T06:51:25.248Z,15.8
2017-07-26T06:51:55.526Z,15.8
2017-07-26T06:52:25.915Z,15.8
2017-07-26T06:52:56.317Z,15.8
2017-07-26T06:54:21.189Z,15.8
2017-07-26T06:55:20.387Z,15.9
2017-07-26T06:56:19.237Z,15.9
2017-07-26T06:57:18.819Z,15.9
2017-07-26T06:58:18.025Z,15.9
2017-07-26T06:59:17.094Z,16
2017-07-26T07:00:16.678Z,16
2017-07-26T07:01:15.887Z,16.1
2017-07-26T07:02:15.086Z,16.1
2017-07-26T07:03:14.292Z,16.2
2017-07-26T07:04:13.268Z,16.2
2017-07-26T07:05:12.984Z,16.2
2017-07-26T07:06:12.181Z,16.2
2017-07-26T07:07:11.263Z,16.2
2017-07-26T07:08:10.472Z,16.1
2017-07-26T07:09:09.559Z,16.1
2017-07-26T07:10:09.262Z,16
2017-07-26T07:11:08.370Z,16
2017-07-26T07:13:06.958Z,15.8
2017-07-26T07:14:06.166Z,15.8
2017-07-26T07:14:36.694Z,15.8
2017-07-26T07:16:04.196Z,15.7
2017-07-26T07:17:03.783Z,15.8
2017-07-26T07:18:02.974Z,15.8
2017-07-26T07:19:02.171Z,15.8
2017-07-26T07:20:01.248Z,15.8
2017-07-26T07:21:00.717Z,15.8
2017-07-26T07:21:59.930Z,15.8
2017-07-26T07:22:59.517Z,15.8
2017-07-26T07:23:58.708Z,15.8
2017-07-26T07:24:57.930Z,15.9
2017-07-26T07:25:57.132Z,15.8
2017-07-26T07:26:56.335Z,15.8
2017-07-26T07:27:55.440Z,15.8
2017-07-26T07:28:55.014Z,15.9
2017-07-26T07:29:53.967Z,16
2017-07-26T07:30:53.546Z,15.9
2017-07-26T07:31:52.741Z,15.9
2017-07-26T07:32:23.014Z,15.9
2017-07-26T07:32:53.907Z,15.9
2017-07-26T07:33:50.976Z,16
2017-07-26T07:34:50.163Z,16.1
2017-07-26T07:35:49.361Z,16.1
2017-07-26T07:36:49.054Z,16.3
2017-07-26T07:37:48.256Z,16.3
2017-07-26T07:38:47.236Z,16.3
2017-07-26T07:39:46.429Z,16.4
2017-07-26T07:40:45.628Z,16.4
2017-07-26T07:41:45.096Z,16.5
2017-07-26T07:42:44.193Z,16.5
2017-07-26T07:43:14.473Z,16.5
2017-07-26T07:43:44.989Z,16.5
2017-07-26T07:44:15.504Z,16.5
2017-07-26T07:45:42.404Z,16.5
2017-07-26T07:46:41.631Z,16.4
2017-07-26T07:48:39.715Z,16.5
2017-07-26T07:49:39.407Z,16.5
2017-07-26T07:50:38.496Z,16.5
2017-07-26T07:51:37.586Z,16.3
2017-07-26T07:52:36.674Z,16.3
2017-07-26T07:53:36.396Z,16.3
2017-07-26T07:54:35.486Z,16.3
2017-07-26T07:55:34.579Z,16.1
2017-07-26T07:56:33.791Z,16.2
2017-07-26T07:57:33.383Z,16.2
2017-07-26T07:58:32.460Z,16.2
2017-07-26T07:59:31.855Z,16.1
2017-07-26T08:00:31.097Z,16.1
2017-07-26T08:01:30.194Z,16.1
2017-07-26T08:02:29.421Z,16.1
2017-07-26T08:03:28.634Z,16.1
2017-07-26T08:04:28.329Z,16.2
2017-07-26T08:05:27.530Z,16.3
2017-07-26T08:06:26.620Z,16.3
2017-07-26T08:07:25.814Z,16.3
2017-07-26T08:08:25.270Z,16.4
2017-07-26T08:09:24.353Z,16.5
2017-07-26T08:10:23.327Z,16.5
2017-07-26T08:11:22.915Z,16.5
2017-07-26T08:12:22.116Z,16.4
2017-07-26T08:13:21.733Z,16.3
2017-07-26T08:14:20.814Z,16.3
2017-07-26T08:15:20.018Z,16.2
2017-07-26T08:16:19.101Z,16.1
2017-07-26T08:17:18.805Z,16
2017-07-26T08:18:17.900Z,16
2017-07-26T08:19:17.090Z,16
2017-07-26T08:20:16.174Z,16
2017-07-26T08:21:15.378Z,16
2017-07-26T08:22:15.087Z,16
2017-07-26T08:23:14.297Z,15.9
2017-07-26T08:25:12.772Z,15.9
2017-07-26T08:26:11.734Z,16
2017-07-26T08:27:11.424Z,16
2017-07-26T08:28:10.505Z,16
2017-07-26T08:29:09.473Z,16.1
2017-07-26T08:30:09.182Z,16.1
2017-07-26T08:31:08.386Z,16.1
2017-07-26T08:32:07.612Z,16.1
2017-07-26T08:33:06.706Z,16.1
2017-07-26T08:34:05.905Z,16.1
2017-07-26T08:35:05.102Z,16.1
2017-07-26T08:36:04.814Z,16.1
2017-07-26T08:37:03.898Z,16.2
2017-07-26T08:38:03.103Z,16.2
2017-07-26T08:39:02.310Z,16.2
2017-07-26T08:39:32.595Z,16.2
2017-07-26T08:40:03.270Z,16.1
2017-07-26T08:40:34.042Z,16.1
2017-07-26T08:41:04.433Z,16.1
2017-07-26T08:41:34.947Z,16.1
2017-07-26T08:42:59.318Z,16
2017-07-26T08:43:58.516Z,16
2017-07-26T08:44:58.216Z,16
2017-07-26T08:45:57.303Z,16
2017-07-26T08:46:56.263Z,15.9
2017-07-26T08:47:55.735Z,15.9
2017-07-26T08:48:54.849Z,15.9
2017-07-26T08:49:54.437Z,15.9
2017-07-26T08:50:53.643Z,15.8
2017-07-26T08:51:23.787Z,15.8
2017-07-26T08:51:54.306Z,15.8
2017-07-26T08:52:24.590Z,15.8
2017-07-26T08:53:51.470Z,15.8
2017-07-26T08:54:50.668Z,15.8
2017-07-26T08:55:49.749Z,15.8
2017-07-26T08:56:48.952Z,15.8
2017-07-26T08:57:48.659Z,15.8
2017-07-26T08:58:47.862Z,15.8
2017-07-26T08:59:46.950Z,15.8
2017-07-26T09:00:46.050Z,15.8
2017-07-26T09:01:45.754Z,15.8
2017-07-26T09:02:44.836Z,15.8
2017-07-26T09:03:44.040Z,15.8
2017-07-26T09:04:43.239Z,15.8
2017-07-26T09:05:42.451Z,15.8
2017-07-26T09:06:42.049Z,15.8
2017-07-26T09:07:41.261Z,15.8
2017-07-26T09:08:40.454Z,15.8
2017-07-26T09:09:10.961Z,15.8
2017-07-26T09:09:41.472Z,15.8
2017-07-26T09:10:11.864Z,15.8
2017-07-26T09:11:38.229Z,15.8
2017-07-26T09:12:37.439Z,15.9
2017-07-26T09:13:36.514Z,15.9
2017-07-26T09:14:35.719Z,15.9
2017-07-26T09:15:35.316Z,16
2017-07-26T09:16:34.404Z,16
2017-07-26T09:17:33.502Z,16
2017-07-26T09:18:33.207Z,16
2017-07-26T09:19:32.305Z,16
2017-07-26T09:20:31.499Z,16
2017-07-26T09:21:30.653Z,16
2017-07-26T09:22:29.748Z,16
2017-07-26T09:23:29.353Z,16
2017-07-26T09:24:28.551Z,16.1
2017-07-26T09:25:27.639Z,16.1
2017-07-26T09:26:27.342Z,16.1
2017-07-26T09:27:26.542Z,16.1
2017-07-26T09:28:25.755Z,16.1
2017-07-26T09:29:24.716Z,16.1
2017-07-26T09:30:24.428Z,16.1
2017-07-26T09:31:23.400Z,16
2017-07-26T09:31:53.795Z,16
2017-07-26T09:32:24.070Z,16.1
2017-07-26T09:32:54.971Z,16.1
2017-07-26T09:34:21.348Z,16.1
2017-07-26T09:35:20.318Z,16.1
2017-07-26T09:36:19.512Z,16.1
2017-07-26T09:37:19.106Z,16
2017-07-26T09:38:18.074Z,15.9
2017-07-26T09:39:17.765Z,16
2017-07-26T09:40:16.677Z,16
2017-07-26T09:41:15.760Z,16
2017-07-26T09:42:15.378Z,16
2017-07-26T09:44:13.977Z,16
2017-07-26T09:45:13.076Z,15.9
2017-07-26T09:46:12.282Z,15.8
2017-07-26T09:47:11.486Z,15.8
2017-07-26T09:48:10.679Z,15.8
2017-07-26T09:49:10.276Z,15.8
2017-07-26T09:50:09.357Z,15.8
2017-07-26T09:51:08.569Z,15.8
2017-07-26T09:52:07.777Z,15.8
2017-07-26T09:53:07.370Z,15.8
2017-07-26T09:54:06.447Z,15.8
2017-07-26T09:55:05.644Z,15.8
2017-07-26T09:56:04.867Z,15.7
2017-07-26T09:57:03.961Z,15.8
2017-07-26T09:58:03.555Z,15.8
2017-07-26T09:59:02.754Z,15.8
2017-07-26T10:00:01.845Z,15.7
2017-07-26T10:01:01.436Z,15.7
2017-07-26T10:02:00.646Z,15.7
2017-07-26T10:02:59.734Z,15.6
2017-07-26T10:03:30.259Z,15.6
2017-07-26T10:04:00.768Z,15.6
2017-07-26T10:04:58.460Z,15.6
2017-07-26T10:05:57.666Z,15.6
2017-07-26T10:06:56.868Z,15.7
2017-07-26T10:07:56.074Z,15.7
2017-07-26T10:08:55.308Z,15.7
2017-07-26T10:09:54.780Z,15.6
2017-07-26T10:10:53.854Z,15.6
2017-07-26T10:11:53.050Z,15.6
2017-07-26T10:12:52.770Z,15.6
2017-07-26T10:13:51.981Z,15.7
2017-07-26T10:14:51.061Z,15.6
2017-07-26T10:15:50.247Z,15.6
2017-07-26T10:16:49.457Z,15.7
2017-07-26T10:17:48.661Z,15.6
2017-07-26T10:19:47.246Z,15.6
2017-07-26T10:20:46.448Z,15.6
2017-07-26T10:21:46.143Z,15.7
2017-07-26T10:22:45.219Z,15.7
2017-07-26T10:23:44.419Z,15.7
2017-07-26T10:24:43.628Z,15.8
2017-07-26T10:25:42.857Z,15.7
2017-07-26T10:26:42.427Z,15.7
2017-07-26T10:27:41.645Z,15.7
2017-07-26T10:28:12.187Z,15.7
2017-07-26T10:28:42.578Z,15.7
2017-07-26T10:29:12.972Z,15.7
2017-07-26T10:30:39.515Z,15.7
2017-07-26T10:31:39.447Z,15.7
2017-07-26T10:33:37.039Z,15.7
2017-07-26T10:34:36.712Z,15.6
2017-07-26T10:35:35.915Z,15.6
2017-07-26T10:36:35.124Z,15.6
2017-07-26T10:37:34.337Z,15.6
2017-07-26T10:38:33.551Z,15.6
2017-07-26T10:39:32.640Z,15.6
2017-07-26T10:40:02.800Z,15.6
2017-07-26T10:41:31.459Z,15.6
2017-07-26T10:42:30.648Z,15.6
2017-07-26T10:43:29.614Z,15.6
2017-07-26T10:44:29.082Z,15.6
2017-07-26T10:45:28.185Z,15.6
2017-07-26T10:46:27.902Z,15.6
2017-07-26T10:47:26.993Z,15.6
2017-07-26T10:48:26.187Z,15.6
2017-07-26T10:49:25.274Z,15.6
2017-07-26T10:50:24.976Z,15.6
2017-07-26T10:51:24.054Z,15.5
2017-07-26T10:52:23.151Z,15.5
2017-07-26T10:53:22.609Z,15.5
2017-07-26T10:54:21.708Z,15.5
2017-07-26T10:55:21.172Z,15.6
2017-07-26T10:56:20.373Z,15.5
2017-07-26T10:57:19.844Z,15.5
2017-07-26T10:57:50.360Z,15.5
2017-07-26T10:58:20.749Z,15.5
2017-07-26T10:58:51.033Z,15.5
2017-07-26T10:59:21.541Z,15.5
2017-07-26T10:59:51.825Z,15.5
2017-07-26T11:01:16.747Z,15.5
2017-07-26T11:02:15.945Z,15.5
2017-07-26T11:03:15.150Z,15.5
2017-07-26T11:04:14.740Z,15.5
2017-07-26T11:05:13.831Z,15.5
2017-07-26T11:06:12.915Z,15.5
2017-07-26T11:07:12.619Z,15.5
2017-07-26T11:08:11.694Z,15.4
2017-07-26T11:09:10.888Z,15.4
2017-07-26T11:10:09.969Z,15.5
2017-07-26T11:11:09.557Z,15.5
2017-07-26T11:12:08.641Z,15.4
2017-07-26T11:12:39.417Z,15.4
2017-07-26T11:13:09.936Z,15.4
2017-07-26T11:14:06.889Z,15.5
2017-07-26T11:15:06.597Z,15.5
2017-07-26T11:16:05.572Z,15.5
2017-07-26T11:17:05.048Z,15.5
2017-07-26T11:18:04.394Z,15.4
2017-07-26T11:19:03.613Z,15.3
2017-07-26T11:20:02.812Z,15.4
2017-07-26T11:21:01.775Z,15.4
2017-07-26T11:21:32.288Z,15.4
2017-07-26T11:22:02.679Z,15.4
2017-07-26T11:23:00.764Z,15.4
2017-07-26T11:23:59.860Z,15.4
2017-07-26T11:24:59.062Z,15.3
2017-07-26T11:25:58.638Z,15.3
2017-07-26T11:26:57.843Z,15.3
2017-07-26T11:27:57.058Z,15.3
2017-07-26T11:28:56.321Z,15.2
2017-07-26T11:29:55.417Z,15.2
2017-07-26T11:30:54.669Z,15.1
2017-07-26T11:31:54.386Z,15.1
2017-07-26T11:32:53.597Z,15.1
2017-07-26T11:33:52.811Z,15.1
2017-07-26T11:34:51.887Z,15.1
2017-07-26T11:35:51.090Z,15
2017-07-26T11:36:50.177Z,15
2017-07-26T11:37:49.905Z,15.1
2017-07-26T11:38:49.103Z,15.1
2017-07-26T11:39:48.304Z,15.1
2017-07-26T11:40:47.506Z,15.1
2017-07-26T11:41:46.714Z,15.1
2017-07-26T11:42:45.798Z,15.1
2017-07-26T11:43:45.495Z,15
2017-07-26T11:44:44.567Z,15
2017-07-26T11:45:43.768Z,15
2017-07-26T11:46:42.969Z,15
2017-07-26T11:47:42.178Z,15
2017-07-26T11:48:41.380Z,15
2017-07-26T11:49:41.090Z,15
2017-07-26T11:50:40.288Z,15
2017-07-26T11:51:10.795Z,15
2017-07-26T11:51:41.318Z,15
2017-07-26T11:52:11.711Z,15
2017-07-26T11:52:42.099Z,15
2017-07-26T11:53:12.516Z,15
2017-07-26T11:53:42.930Z,15.1
2017-07-26T11:54:36.796Z,15.1
2017-07-26T11:55:36.381Z,15.1
2017-07-26T11:56:35.475Z,15.1
2017-07-26T11:57:35.178Z,15.1
2017-07-26T11:58:34.271Z,15.1
2017-07-26T11:59:33.345Z,15.1
2017-07-26T12:00:32.537Z,15.1
2017-07-26T12:01:31.628Z,15.1
2017-07-26T12:02:31.346Z,15.1
2017-07-26T12:03:30.549Z,15.1
2017-07-26T12:04:29.729Z,15.1
2017-07-26T12:05:28.707Z,15.1
2017-07-26T12:06:28.300Z,15.1
2017-07-26T12:07:27.383Z,15.1
2017-07-26T12:08:26.470Z,15.1
2017-07-26T12:09:26.047Z,15.1
2017-07-26T12:10:25.281Z,15
2017-07-26T12:11:24.262Z,15.1
2017-07-26T12:12:23.737Z,15.1
2017-07-26T12:13:22.811Z,15.1
2017-07-26T12:14:22.285Z,15.1
2017-07-26T12:15:21.473Z,15.1
2017-07-26T12:16:21.057Z,15.1
2017-07-26T12:17:20.027Z,15
2017-07-26T12:18:19.108Z,15
2017-07-26T12:19:18.815Z,15.1
2017-07-26T12:20:17.774Z,15.1
2017-07-26T12:21:16.980Z,15.1
2017-07-26T12:22:16.178Z,15.1
2017-07-26T12:23:15.782Z,15.1
2017-07-26T12:24:14.978Z,15.1
2017-07-26T12:25:14.174Z,15.1
2017-07-26T12:26:13.166Z,15.1
2017-07-26T12:27:12.863Z,15.2
2017-07-26T12:28:11.940Z,15.2
2017-07-26T12:29:10.794Z,15.2
2017-07-26T12:30:10.510Z,15.1
2017-07-26T12:31:09.589Z,15.1
2017-07-26T12:32:08.684Z,15.1
2017-07-26T12:33:08.406Z,15.1
2017-07-26T12:34:07.255Z,15.3
2017-07-26T12:35:06.718Z,15.3
2017-07-26T12:36:05.808Z,15.2
2017-07-26T12:37:05.390Z,15.2
2017-07-26T12:38:04.484Z,15.2
2017-07-26T12:39:03.687Z,15.2
2017-07-26T12:40:02.878Z,15.2
2017-07-26T12:41:02.349Z,15.1
2017-07-26T12:42:01.549Z,15.1
2017-07-26T12:43:00.513Z,15.1
2017-07-26T12:44:00.106Z,15.1
2017-07-26T12:44:59.180Z,15.2
2017-07-26T12:45:58.633Z,15.1
2017-07-26T12:46:57.827Z,15.1
2017-07-26T12:47:28.336Z,15.1
2017-07-26T12:47:58.618Z,15.2
2017-07-26T12:48:29.012Z,15.2
2017-07-26T12:48:59.523Z,15.2
2017-07-26T12:49:30.039Z,15.2
2017-07-26T12:50:54.802Z,15.2
2017-07-26T12:51:54.015Z,15.2
2017-07-26T12:52:53.590Z,15.2
2017-07-26T12:53:52.681Z,15.1
2017-07-26T12:54:51.763Z,15.2
2017-07-26T12:55:51.473Z,15.2
2017-07-26T12:56:50.685Z,15.2
2017-07-26T12:57:49.888Z,15.2
2017-07-26T12:58:49.086Z,15.3
2017-07-26T12:59:19.367Z,15.3
2017-07-26T13:00:47.782Z,15.3
2017-07-26T13:01:18.301Z,15.3
2017-07-26T13:01:48.849Z,15.3
2017-07-26T13:02:46.026Z,15.3
2017-07-26T13:03:45.229Z,15.3
2017-07-26T13:04:44.447Z,15.3
2017-07-26T13:05:44.040Z,15.3
2017-07-26T13:06:43.122Z,15.3
2017-07-26T13:07:42.323Z,15.3
2017-07-26T13:08:41.285Z,15.3
2017-07-26T13:09:40.889Z,15.4
2017-07-26T13:10:40.091Z,15.4